Time;durP1;ratioP1;P1;durP2;ratioP2;P2;SDS_P1;SDS_P2;PMS_P1;PMS_P2;Temp;Humidity;BMP_temperature;BMP_pressure;BME280_temperature;BME280_humidity;BME280_pressure;Samples;Min_cycle;Max_cycle;Signal;HPM_P1;HPM_P2
2023/10/22 00:02:14;;;;;;;9.15;1.85;;;13.00;99.90;;;;;;5018345;28;20057;-61
2023/10/22 00:04:40;;;;;;;8.13;1.63;;;13.00;99.90;;;;;;5019039;28;20044;-61
2023/10/22 00:07:09;;;;;;;5.22;1.88;;;13.00;99.90;;;;;;5037827;28;20621;-61
2023/10/22 00:09:35;;;;;;;6.13;0.88;;;13.00;99.90;;;;;;5041889;28;20053;-61
2023/10/22 00:12:01;;;;;;;5.82;1.40;;;13.00;99.90;;;;;;5035299;28;20033;-61
2023/10/22 00:14:28;;;;;;;6.65;1.77;;;13.00;99.90;;;;;;5035783;28;20048;-61
2023/10/22 00:16:53;;;;;;;4.18;1.35;;;13.00;99.90;;;;;;5039087;28;20102;-61
2023/10/22 00:19:19;;;;;;;4.10;1.20;;;13.00;99.90;;;;;;5038938;28;20037;-61
2023/10/22 00:21:46;;;;;;;3.05;0.75;;;13.10;99.90;;;;;;5006131;28;20419;-61
2023/10/22 00:24:12;;;;;;;5.10;1.30;;;13.00;99.90;;;;;;5033765;28;20536;-61
2023/10/22 00:26:39;;;;;;;5.40;1.10;;;13.00;99.90;;;;;;5040472;28;20495;-60
2023/10/22 00:29:06;;;;;;;4.90;1.30;;;13.10;99.90;;;;;;5036714;28;20412;-61
2023/10/22 00:31:31;;;;;;;4.32;1.15;;;13.00;99.90;;;;;;5044058;28;20037;-61
2023/10/22 00:33:57;;;;;;;4.93;1.23;;;13.10;99.90;;;;;;5056738;28;20530;-61
2023/10/22 00:36:24;;;;;;;7.22;1.30;;;13.00;99.90;;;;;;5055689;28;20047;-60
2023/10/22 00:38:51;;;;;;;6.32;1.38;;;13.00;99.90;;;;;;5040601;28;20052;-61
2023/10/22 00:41:16;;;;;;;5.45;1.10;;;13.10;99.90;;;;;;5022278;28;20120;-60
2023/10/22 00:43:42;;;;;;;4.15;1.20;;;13.00;99.90;;;;;;5051691;28;20179;-60
2023/10/22 00:46:22;;;;;;;4.20;1.48;;;13.10;99.90;;;;;;5039319;28;20048;-60
2023/10/22 00:48:48;;;;;;;8.48;1.20;;;13.10;99.90;;;;;;5036641;28;20090;-61
2023/10/22 00:51:14;;;;;;;6.95;1.20;;;13.10;99.90;;;;;;5038643;28;20059;-61
2023/10/22 00:53:43;;;;;;;4.47;0.95;;;13.10;99.90;;;;;;5038962;28;20076;-61
2023/10/22 00:56:09;;;;;;;6.40;1.10;;;13.10;99.90;;;;;;5022790;28;20045;-60
2023/10/22 00:58:36;;;;;;;5.28;1.10;;;13.10;99.90;;;;;;5036216;28;20049;-61
2023/10/22 01:01:08;;;;;;;4.20;1.30;;;13.10;99.90;;;;;;5033223;28;20095;-61
2023/10/22 01:03:36;;;;;;;5.55;1.02;;;13.10;99.90;;;;;;5033617;28;20086;-61
2023/10/22 01:06:05;;;;;;;5.10;1.10;;;13.10;99.90;;;;;;5015520;28;20521;-61
2023/10/22 01:08:37;;;;;;;6.18;1.50;;;13.10;99.90;;;;;;5035959;28;20328;-61
2023/10/22 01:11:06;;;;;;;6.28;1.00;;;13.00;99.90;;;;;;5041601;28;20045;-60
2023/10/22 01:13:32;;;;;;;3.40;1.35;;;13.00;99.90;;;;;;5037557;28;20047;-61
2023/10/22 01:15:58;;;;;;;5.53;1.00;;;12.90;99.90;;;;;;5042434;28;20033;-61
2023/10/22 01:18:24;;;;;;;9.02;1.00;;;12.90;99.90;;;;;;5043369;28;20471;-61
2023/10/22 01:20:50;;;;;;;2.35;0.80;;;12.90;99.90;;;;;;5041102;28;20317;-61
2023/10/22 01:23:16;;;;;;;5.75;1.05;;;12.80;99.90;;;;;;5037742;28;20393;-61
2023/10/22 01:25:42;;;;;;;2.53;0.68;;;12.80;99.90;;;;;;5037648;28;20045;-61
2023/10/22 01:28:08;;;;;;;3.75;1.17;;;12.80;99.90;;;;;;5036531;28;20458;-61
2023/10/22 01:30:34;;;;;;;6.85;1.42;;;12.80;99.90;;;;;;5036651;28;20116;-61
2023/10/22 01:32:59;;;;;;;4.78;1.05;;;12.70;99.90;;;;;;5037856;28;20147;-60
2023/10/22 01:35:25;;;;;;;5.03;1.23;;;12.60;99.90;;;;;;5034779;28;20040;-61
2023/10/22 01:37:51;;;;;;;6.68;1.38;;;12.60;99.90;;;;;;5021740;28;20040;-61
2023/10/22 01:40:17;;;;;;;7.85;1.70;;;12.60;99.90;;;;;;5037878;28;20081;-61
2023/10/22 01:42:42;;;;;;;5.18;1.92;;;12.50;99.90;;;;;;5037829;28;20049;-61
2023/10/22 01:45:08;;;;;;;5.05;1.63;;;12.50;99.90;;;;;;5037884;28;20090;-60
2023/10/22 01:47:34;;;;;;;6.32;1.83;;;12.50;99.90;;;;;;5041251;28;20036;-60
2023/10/22 01:50:00;;;;;;;4.22;1.50;;;12.40;99.90;;;;;;5036013;28;20502;-61
2023/10/22 01:52:25;;;;;;;7.15;1.50;;;12.40;99.90;;;;;;5033909;28;20044;-61
2023/10/22 01:54:51;;;;;;;4.65;1.95;;;12.40;99.90;;;;;;5042573;28;20047;-61
2023/10/22 01:57:17;;;;;;;3.05;1.35;;;12.40;99.90;;;;;;5038420;28;20128;-61
2023/10/22 01:59:43;;;;;;;5.88;1.45;;;12.40;99.90;;;;;;5021398;28;20218;-61
2023/10/22 02:02:08;;;;;;;5.80;1.35;;;12.40;99.90;;;;;;5035314;28;20033;-60
2023/10/22 02:04:34;;;;;;;2.60;1.20;;;12.40;99.90;;;;;;5040072;28;20055;-61
2023/10/22 02:07:00;;;;;;;4.53;1.33;;;12.30;99.90;;;;;;5033644;28;20045;-60
2023/10/22 02:09:26;;;;;;;6.78;1.85;;;12.30;99.90;;;;;;5034715;28;20937;-61
2023/10/22 02:11:53;;;;;;;4.15;1.50;;;12.30;99.90;;;;;;5037617;28;20025;-61
2023/10/22 02:14:19;;;;;;;5.90;1.30;;;12.30;99.90;;;;;;5038534;28;20126;-61
2023/10/22 02:16:45;;;;;;;4.63;1.20;;;12.30;99.90;;;;;;5021557;28;20169;-61
2023/10/22 02:19:11;;;;;;;4.20;1.20;;;12.30;99.90;;;;;;5017324;28;20098;-61
2023/10/22 02:21:37;;;;;;;2.65;1.20;;;12.30;99.90;;;;;;5042378;28;20136;-61
2023/10/22 02:24:03;;;;;;;3.40;1.20;;;12.30;99.90;;;;;;5040986;28;20057;-60
2023/10/22 02:26:29;;;;;;;4.72;1.30;;;12.30;99.90;;;;;;5035986;28;20052;-60
2023/10/22 02:28:55;;;;;;;4.20;1.50;;;12.30;99.90;;;;;;5039501;28;20044;-61
2023/10/22 02:31:21;;;;;;;2.67;1.45;;;12.30;99.90;;;;;;5038725;28;20042;-60
2023/10/22 02:33:46;;;;;;;5.00;1.70;;;12.30;99.90;;;;;;5034348;28;20072;-61
2023/10/22 02:36:12;;;;;;;3.67;1.30;;;12.30;99.90;;;;;;5018424;28;20396;-60
2023/10/22 02:38:39;;;;;;;3.17;1.25;;;12.30;99.90;;;;;;5017664;28;20114;-60
2023/10/22 02:41:05;;;;;;;5.57;1.70;;;12.30;99.90;;;;;;5005409;28;20037;-61
2023/10/22 02:43:31;;;;;;;3.28;1.50;;;12.30;99.90;;;;;;5042387;28;20044;-61
2023/10/22 02:45:57;;;;;;;3.50;1.40;;;12.30;99.90;;;;;;5033366;28;20053;-60
2023/10/22 02:48:24;;;;;;;4.03;1.80;;;12.30;99.90;;;;;;5021534;28;20036;-61
2023/10/22 02:50:50;;;;;;;4.75;1.65;;;12.30;99.90;;;;;;5035181;28;20064;-61
2023/10/22 02:53:16;;;;;;;4.20;1.40;;;12.30;99.90;;;;;;5042194;28;20540;-60
2023/10/22 02:55:42;;;;;;;3.20;1.85;;;12.30;99.90;;;;;;5020931;28;20128;-61
2023/10/22 02:58:08;;;;;;;3.40;1.35;;;12.30;99.90;;;;;;5037077;28;20115;-61
2023/10/22 03:00:34;;;;;;;8.00;2.13;;;12.30;99.90;;;;;;5039223;28;20276;-61
2023/10/22 03:03:01;;;;;;;4.53;1.63;;;12.30;99.90;;;;;;5038607;28;20496;-61
2023/10/22 03:05:27;;;;;;;4.38;1.60;;;12.30;99.90;;;;;;5038260;28;20059;-61
2023/10/22 03:07:53;;;;;;;2.95;1.35;;;12.30;99.90;;;;;;5001209;28;20041;-60
2023/10/22 03:10:19;;;;;;;2.30;1.30;;;12.30;99.90;;;;;;5036042;28;20036;-61
2023/10/22 03:12:44;;;;;;;4.82;1.83;;;12.30;99.90;;;;;;5032920;28;20508;-61
2023/10/22 03:15:10;;;;;;;2.47;1.40;;;12.30;99.90;;;;;;5032320;28;20399;-61
2023/10/22 03:17:36;;;;;;;3.28;1.60;;;12.40;99.90;;;;;;5034138;28;20111;-61
2023/10/22 03:20:03;;;;;;;4.03;1.77;;;12.30;99.90;;;;;;5015992;28;20060;-61
2023/10/22 03:22:30;;;;;;;3.95;1.42;;;12.40;99.90;;;;;;5035105;28;20056;-61
2023/10/22 03:24:56;;;;;;;4.38;1.70;;;12.40;99.90;;;;;;5020402;28;20411;-61
2023/10/22 03:27:22;;;;;;;4.43;2.00;;;12.30;99.90;;;;;;5031289;28;20045;-61
2023/10/22 03:29:47;;;;;;;4.43;1.70;;;12.30;99.90;;;;;;5032095;28;20056;-61
2023/10/22 03:32:14;;;;;;;3.63;1.58;;;12.30;99.90;;;;;;5040588;28;20535;-61
2023/10/22 03:34:40;;;;;;;3.38;1.60;;;12.40;99.90;;;;;;5019886;28;20123;-61
2023/10/22 03:37:08;;;;;;;4.50;1.85;;;12.40;99.90;;;;;;5037172;28;20599;-61
2023/10/22 03:39:36;;;;;;;3.35;1.98;;;12.40;99.90;;;;;;5036375;28;20052;-61
2023/10/22 03:42:01;;;;;;;3.65;1.85;;;12.40;99.90;;;;;;5025714;28;20037;-61
2023/10/22 03:44:27;;;;;;;5.50;2.42;;;12.40;99.90;;;;;;5033342;28;20080;-61
2023/10/22 03:46:53;;;;;;;6.45;2.55;;;12.40;99.90;;;;;;5034393;28;20059;-61
2023/10/22 03:49:19;;;;;;;5.40;2.22;;;12.40;99.90;;;;;;5039349;28;20048;-60
2023/10/22 03:51:44;;;;;;;3.50;2.10;;;12.40;99.90;;;;;;5036853;28;20137;-60
2023/10/22 03:54:10;;;;;;;4.95;2.03;;;12.40;99.90;;;;;;5033313;28;20068;-61
2023/10/22 03:56:36;;;;;;;4.82;2.10;;;12.40;99.90;;;;;;5033918;28;20492;-61
2023/10/22 03:59:01;;;;;;;3.97;2.00;;;12.40;99.90;;;;;;5055711;28;20298;-61
2023/10/22 04:01:27;;;;;;;3.78;2.10;;;12.40;99.90;;;;;;5027528;28;20060;-61
2023/10/22 04:03:53;;;;;;;5.07;2.20;;;12.40;99.90;;;;;;5036295;28;20049;-61
2023/10/22 04:06:19;;;;;;;4.38;2.60;;;12.40;99.90;;;;;;5042483;28;20042;-61
2023/10/22 04:08:44;;;;;;;4.70;2.40;;;12.40;99.90;;;;;;5037406;28;20041;-61
2023/10/22 04:11:10;;;;;;;4.05;2.65;;;12.40;99.90;;;;;;5037871;28;20115;-60
2023/10/22 04:13:36;;;;;;;4.05;2.72;;;12.40;99.90;;;;;;5044479;28;20041;-61
2023/10/22 04:16:02;;;;;;;5.55;2.83;;;12.40;99.90;;;;;;5039285;28;20507;-61
2023/10/22 04:18:28;;;;;;;3.03;2.35;;;12.40;99.90;;;;;;5055048;28;20048;-61
2023/10/22 04:20:54;;;;;;;5.13;2.40;;;12.40;99.90;;;;;;5026640;28;20037;-61
2023/10/22 04:23:19;;;;;;;6.13;2.90;;;12.50;99.90;;;;;;5040646;28;20439;-61
2023/10/22 04:25:45;;;;;;;4.20;2.72;;;12.50;99.90;;;;;;5038599;28;20048;-60
2023/10/22 04:28:12;;;;;;;4.18;2.65;;;12.50;99.90;;;;;;5039388;28;20341;-61
2023/10/22 04:30:45;;;;;;;5.45;3.08;;;12.50;99.90;;;;;;5041757;28;20123;-61
2023/10/22 04:33:12;;;;;;;3.20;2.83;;;12.50;99.90;;;;;;5058273;28;20037;-61
2023/10/22 04:35:37;;;;;;;5.00;3.40;;;12.50;99.90;;;;;;5040170;28;20280;-61
2023/10/22 04:38:03;;;;;;;4.72;3.63;;;12.50;99.90;;;;;;5039946;28;20087;-61
2023/10/22 04:40:33;;;;;;;6.95;4.18;;;12.60;99.90;;;;;;5039988;28;20041;-61
2023/10/22 04:42:59;;;;;;;6.82;4.68;;;12.60;99.90;;;;;;5041138;28;20041;-61
2023/10/22 04:45:24;;;;;;;7.35;5.57;;;12.60;99.90;;;;;;5037360;28;20060;-61
2023/10/22 04:47:50;;;;;;;6.80;5.75;;;12.60;99.90;;;;;;5038727;28;20039;-61
2023/10/22 04:50:16;;;;;;;8.32;6.75;;;12.60;99.90;;;;;;5023487;28;20517;-61
2023/10/22 04:52:42;;;;;;;12.32;7.82;;;12.70;99.90;;;;;;5038818;28;20097;-61
2023/10/22 04:55:11;;;;;;;9.25;6.57;;;12.70;99.90;;;;;;5042208;28;20072;-61
2023/10/22 04:57:37;;;;;;;8.13;7.30;;;12.70;99.90;;;;;;5037305;28;20746;-61
2023/10/22 05:00:09;;;;;;;13.63;8.65;;;12.70;99.90;;;;;;5055544;28;20041;-61
2023/10/22 05:02:35;;;;;;;14.70;10.90;;;12.70;99.90;;;;;;5041041;28;20081;-60
2023/10/22 05:05:01;;;;;;;13.23;10.15;;;12.80;99.90;;;;;;5037357;28;20160;-61
2023/10/22 05:07:27;;;;;;;13.18;9.63;;;12.80;99.90;;;;;;5034548;28;20048;-61
2023/10/22 05:09:53;;;;;;;11.93;10.50;;;12.80;99.90;;;;;;5053545;28;20037;-61
2023/10/22 05:12:19;;;;;;;15.32;10.40;;;12.90;99.90;;;;;;5021796;28;20377;-61
2023/10/22 05:14:44;;;;;;;12.27;10.45;;;12.90;99.90;;;;;;5030990;28;20345;-61
2023/10/22 05:17:10;;;;;;;12.77;9.82;;;12.90;99.90;;;;;;5046587;28;20055;-61
2023/10/22 05:19:36;;;;;;;13.02;9.80;;;12.90;99.90;;;;;;5045063;28;20037;-61
2023/10/22 05:22:05;;;;;;;12.63;9.07;;;13.00;99.90;;;;;;5044203;28;20123;-61
2023/10/22 05:24:32;;;;;;;10.05;8.52;;;13.00;99.90;;;;;;5051731;28;20149;-61
2023/10/22 05:26:57;;;;;;;12.45;7.40;;;13.00;99.90;;;;;;5034729;28;20049;-61
2023/10/22 05:29:23;;;;;;;6.70;6.00;;;13.00;99.90;;;;;;5039969;28;20098;-61
2023/10/22 05:31:50;;;;;;;6.20;4.13;;;13.00;99.90;;;;;;5037973;28;20396;-61
2023/10/22 05:34:16;;;;;;;3.92;2.40;;;12.90;99.90;;;;;;5040354;28;20490;-61
2023/10/22 05:36:42;;;;;;;2.88;1.35;;;12.90;99.90;;;;;;5035618;28;20041;-60
2023/10/22 05:39:07;;;;;;;6.07;1.40;;;12.80;99.90;;;;;;5034863;28;20083;-60
2023/10/22 05:41:33;;;;;;;4.45;1.70;;;12.60;99.90;;;;;;5038911;28;20127;-61
2023/10/22 05:44:01;;;;;;;6.10;1.27;;;12.60;99.90;;;;;;5038484;28;20040;-61
2023/10/22 05:46:36;;;;;;;7.20;1.27;;;12.60;99.90;;;;;;5041131;28;20040;-61
2023/10/22 05:49:03;;;;;;;4.50;1.38;;;12.50;99.90;;;;;;5054989;28;20098;-61
2023/10/22 05:51:29;;;;;;;7.20;2.15;;;12.50;99.90;;;;;;5041266;28;20037;-61
2023/10/22 05:53:55;;;;;;;6.57;1.55;;;12.40;99.90;;;;;;5020038;28;20036;-61
2023/10/22 05:56:23;;;;;;;9.82;2.63;;;12.40;99.90;;;;;;5040220;28;20106;-62
2023/10/22 05:58:49;;;;;;;10.50;2.20;;;12.30;99.90;;;;;;5041873;28;20040;-61
2023/10/22 06:01:15;;;;;;;8.70;2.20;;;12.40;99.90;;;;;;5039084;28;20076;-61
2023/10/22 06:03:40;;;;;;;8.02;1.95;;;12.30;99.90;;;;;;5038745;28;20102;-61
2023/10/22 06:06:06;;;;;;;11.75;3.10;;;12.30;99.90;;;;;;5037056;28;20128;-61
2023/10/22 06:08:32;;;;;;;17.02;3.00;;;12.30;99.90;;;;;;5037174;28;20052;-61
2023/10/22 06:10:58;;;;;;;9.65;2.78;;;12.30;99.90;;;;;;5057047;28;20041;-61
2023/10/22 06:13:23;;;;;;;14.70;2.65;;;12.30;99.90;;;;;;5054128;28;20557;-61
2023/10/22 06:15:55;;;;;;;10.70;2.75;;;12.30;99.90;;;;;;5034944;28;20033;-61
2023/10/22 06:18:20;;;;;;;8.80;2.90;;;12.40;99.90;;;;;;5023033;28;20046;-60
2023/10/22 06:20:46;;;;;;;5.32;1.83;;;12.40;99.90;;;;;;5041198;28;20656;-60
2023/10/22 06:23:12;;;;;;;5.70;1.52;;;12.30;99.90;;;;;;5036609;28;20057;-61
2023/10/22 06:25:37;;;;;;;4.97;1.50;;;12.20;99.90;;;;;;5039858;28;20069;-61
2023/10/22 06:28:03;;;;;;;6.95;1.77;;;12.20;99.90;;;;;;5036321;28;20032;-61
2023/10/22 06:30:29;;;;;;;6.97;1.80;;;12.20;99.90;;;;;;5022892;28;20527;-61
2023/10/22 06:32:56;;;;;;;5.70;1.52;;;12.20;99.90;;;;;;5037171;28;20056;-61
2023/10/22 06:35:26;;;;;;;7.10;1.75;;;12.20;99.90;;;;;;5037806;28;20041;-61
2023/10/22 06:37:52;;;;;;;7.47;1.80;;;12.20;99.90;;;;;;5034700;28;20048;-60
2023/10/22 06:40:21;;;;;;;5.60;1.58;;;12.20;99.90;;;;;;5035522;28;20053;-60
2023/10/22 06:42:48;;;;;;;6.45;2.00;;;12.20;99.90;;;;;;5024193;28;20048;-61
2023/10/22 06:45:14;;;;;;;5.45;1.73;;;12.20;99.90;;;;;;5035073;28;20138;-61
2023/10/22 06:47:40;;;;;;;6.88;2.10;;;12.20;99.90;;;;;;5037540;28;20061;-61
2023/10/22 06:50:13;;;;;;;4.97;1.70;;;12.10;99.90;;;;;;5040564;28;20067;-61
2023/10/22 06:52:39;;;;;;;7.85;2.40;;;12.10;99.90;;;;;;5037795;28;20040;-61
2023/10/22 06:55:05;;;;;;;5.05;2.00;;;12.10;99.90;;;;;;5035947;28;20036;-60
2023/10/22 06:57:31;;;;;;;10.07;2.17;;;12.10;99.90;;;;;;5049532;28;20029;-61
2023/10/22 06:59:58;;;;;;;7.55;2.80;;;12.10;99.90;;;;;;5035643;28;20044;-61
2023/10/22 07:02:25;;;;;;;9.32;2.63;;;12.00;99.90;;;;;;5039182;28;20131;-61
2023/10/22 07:04:55;;;;;;;9.90;3.00;;;12.10;99.90;;;;;;5019015;28;20045;-61
2023/10/22 07:07:21;;;;;;;12.85;2.97;;;12.10;99.90;;;;;;5034857;28;20055;-61
2023/10/22 07:09:47;;;;;;;9.80;3.00;;;12.10;99.90;;;;;;5034869;28;20071;-61
2023/10/22 07:12:14;;;;;;;11.65;3.30;;;12.10;99.90;;;;;;5022502;28;20140;-60
2023/10/22 07:14:39;;;;;;;8.50;3.10;;;12.10;99.90;;;;;;5035857;28;20094;-61
2023/10/22 07:17:05;;;;;;;12.60;3.45;;;12.10;99.90;;;;;;5037886;28;20041;-61
2023/10/22 07:19:31;;;;;;;11.45;3.28;;;12.10;99.90;;;;;;5036473;28;20474;-61
2023/10/22 07:21:57;;;;;;;8.60;2.83;;;12.20;99.90;;;;;;5040857;28;20048;-61
2023/10/22 07:24:23;;;;;;;10.50;3.30;;;12.20;99.90;;;;;;5034404;28;20095;-61
2023/10/22 07:26:49;;;;;;;13.20;4.03;;;12.20;99.90;;;;;;5023523;28;20106;-61
2023/10/22 07:29:15;;;;;;;12.15;3.15;;;12.20;99.90;;;;;;5039569;28;20045;-61
2023/10/22 07:31:43;;;;;;;5.70;2.33;;;12.20;99.90;;;;;;5020482;28;20215;-61
2023/10/22 07:34:10;;;;;;;11.18;2.90;;;12.30;99.90;;;;;;5028838;28;20319;-61
2023/10/22 07:36:35;;;;;;;12.65;2.67;;;12.30;99.90;;;;;;5018169;28;20044;-61
2023/10/22 07:39:01;;;;;;;9.57;3.50;;;12.30;99.90;;;;;;5038766;28;20524;-61
2023/10/22 07:41:28;;;;;;;10.52;3.10;;;12.30;99.90;;;;;;5038701;28;20048;-61
2023/10/22 07:43:53;;;;;;;8.35;3.10;;;12.30;99.90;;;;;;5040590;28;20038;-61
2023/10/22 07:46:19;;;;;;;8.32;3.25;;;12.20;99.90;;;;;;5040392;28;20450;-61
2023/10/22 07:48:45;;;;;;;9.32;2.58;;;12.20;99.90;;;;;;5022248;28;20045;-61
2023/10/22 07:51:16;;;;;;;8.50;2.08;;;12.20;99.90;;;;;;5041878;28;20075;-61
2023/10/22 07:53:44;;;;;;;7.55;1.95;;;12.20;99.90;;;;;;5020701;28;20037;-61
2023/10/22 07:56:10;;;;;;;6.55;2.20;;;12.20;99.90;;;;;;5033975;28;20120;-60
2023/10/22 07:58:37;;;;;;;11.13;2.75;;;12.20;99.90;;;;;;5038899;28;20395;-60
2023/10/22 08:01:04;;;;;;;7.07;1.75;;;12.20;99.90;;;;;;5038409;28;20045;-61
2023/10/22 08:03:30;;;;;;;6.10;1.52;;;12.20;99.90;;;;;;5037773;28;20539;-61
2023/10/22 08:06:01;;;;;;;6.45;2.25;;;12.30;99.90;;;;;;5037555;28;20150;-61
2023/10/22 08:08:27;;;;;;;10.95;2.75;;;12.30;99.90;;;;;;5035801;28;22386;-61
2023/10/22 08:10:58;;;;;;;10.88;2.20;;;12.30;99.90;;;;;;5048619;28;20071;-61
2023/10/22 08:13:24;;;;;;;7.38;1.92;;;12.30;99.90;;;;;;5037798;28;20041;-61
2023/10/22 08:15:50;;;;;;;8.23;2.38;;;12.30;99.90;;;;;;5020476;28;20040;-60
2023/10/22 08:18:16;;;;;;;5.97;1.45;;;12.40;99.90;;;;;;5035012;28;20137;-61
2023/10/22 08:20:41;;;;;;;6.25;1.63;;;12.40;99.90;;;;;;5034361;28;20420;-61
2023/10/22 08:23:08;;;;;;;5.93;1.15;;;12.40;99.90;;;;;;5021908;28;20040;-61
2023/10/22 08:25:34;;;;;;;4.80;1.55;;;12.40;99.90;;;;;;5040470;28;20041;-61
2023/10/22 08:28:00;;;;;;;7.78;1.38;;;12.40;99.90;;;;;;5033503;28;20099;-61
2023/10/22 08:30:26;;;;;;;9.10;1.55;;;12.50;99.90;;;;;;5036834;28;20543;-61
2023/10/22 08:32:51;;;;;;;6.28;1.20;;;12.50;99.90;;;;;;5028951;28;20091;-60
2023/10/22 08:35:17;;;;;;;5.43;1.45;;;12.50;99.90;;;;;;5020209;28;20037;-61
2023/10/22 08:37:44;;;;;;;7.90;1.45;;;12.60;99.90;;;;;;5030102;28;20037;-61
2023/10/22 08:40:11;;;;;;;5.45;1.00;;;12.60;99.90;;;;;;5032722;28;20404;-61
2023/10/22 08:42:37;;;;;;;8.45;1.65;;;12.60;99.90;;;;;;5031798;28;20056;-61
2023/10/22 08:45:05;;;;;;;4.43;1.23;;;12.60;99.90;;;;;;5036119;28;20044;-61
2023/10/22 08:47:30;;;;;;;7.10;1.20;;;12.60;99.90;;;;;;5043529;28;20037;-61
2023/10/22 08:49:58;;;;;;;4.63;1.13;;;12.70;99.90;;;;;;5025672;28;20122;-61
2023/10/22 08:52:24;;;;;;;3.47;1.02;;;12.70;99.90;;;;;;5043133;28;20044;-61
2023/10/22 08:54:51;;;;;;;2.88;0.93;;;12.70;99.90;;;;;;5039769;28;20092;-61
2023/10/22 08:57:20;;;;;;;6.50;1.30;;;12.80;99.90;;;;;;5043723;28;20462;-61
2023/10/22 08:59:47;;;;;;;2.70;1.00;;;12.80;99.90;;;;;;5039873;28;20051;-61
2023/10/22 09:02:15;;;;;;;4.45;0.93;;;12.80;99.90;;;;;;5042098;28;20048;-61
2023/10/22 09:04:41;;;;;;;5.78;1.10;;;12.90;99.90;;;;;;5043340;28;20438;-61
2023/10/22 09:07:07;;;;;;;2.67;1.05;;;12.90;99.90;;;;;;5038138;28;20032;-59
2023/10/22 09:09:37;;;;;;;5.35;1.20;;;12.90;99.90;;;;;;5039838;28;20041;-61
2023/10/22 09:12:04;;;;;;;3.85;1.10;;;13.10;99.90;;;;;;5038427;28;20045;-61
2023/10/22 09:14:30;;;;;;;3.95;0.88;;;13.20;99.90;;;;;;5043816;28;20076;-61
2023/10/22 09:16:57;;;;;;;4.80;1.10;;;13.30;99.90;;;;;;5041869;28;20036;-61
2023/10/22 09:19:41;;;;;;;5.18;0.88;;;13.50;99.90;;;;;;5040889;28;20045;-61
2023/10/22 09:22:26;;;;;;;4.18;0.73;;;13.60;99.90;;;;;;5021917;28;20037;-61
2023/10/22 09:24:57;;;;;;;3.42;0.80;;;13.70;99.90;;;;;;5037160;28;20034;-61
2023/10/22 09:27:25;;;;;;;4.28;0.95;;;13.80;99.90;;;;;;5026712;28;20051;-60
2023/10/22 09:29:51;;;;;;;3.35;0.60;;;13.90;99.90;;;;;;5044435;28;20540;-61
2023/10/22 09:32:17;;;;;;;4.60;0.90;;;14.00;99.90;;;;;;5023460;28;20037;-61
2023/10/22 09:34:43;;;;;;;3.05;1.10;;;13.90;99.90;;;;;;5041672;28;20077;-61
2023/10/22 09:37:08;;;;;;;4.60;0.80;;;14.00;99.90;;;;;;5029190;28;20037;-61
2023/10/22 09:39:39;;;;;;;4.70;0.80;;;14.20;99.90;;;;;;5026998;28;20044;-61
2023/10/22 09:42:06;;;;;;;1.73;0.93;;;14.30;99.90;;;;;;5031325;28;20037;-61
2023/10/22 09:44:33;;;;;;;3.22;1.05;;;14.30;99.90;;;;;;5014589;28;20071;-61
2023/10/22 09:47:03;;;;;;;3.88;0.98;;;14.50;99.90;;;;;;5031511;28;20563;-61
2023/10/22 09:49:30;;;;;;;4.40;1.05;;;14.60;99.90;;;;;;5038447;28;20604;-61
2023/10/22 09:52:01;;;;;;;4.03;0.95;;;14.60;99.90;;;;;;5035462;28;20363;-60
2023/10/22 09:54:38;;;;;;;6.38;1.00;;;14.60;99.90;;;;;;5023263;28;20038;-60
2023/10/22 09:57:07;;;;;;;4.20;1.25;;;14.60;99.90;;;;;;5040660;28;20112;-61
2023/10/22 09:59:34;;;;;;;3.03;0.88;;;14.70;99.90;;;;;;5036425;28;20041;-61
2023/10/22 10:02:01;;;;;;;4.63;0.98;;;14.60;99.90;;;;;;5038363;28;20526;-60
2023/10/22 10:04:30;;;;;;;7.90;1.63;;;14.60;99.90;;;;;;5040159;28;20048;-61
2023/10/22 10:06:58;;;;;;;2.60;0.80;;;14.40;99.90;;;;;;5051796;28;20048;-61
2023/10/22 10:09:25;;;;;;;5.45;0.95;;;14.40;99.90;;;;;;5038223;28;20090;-60
2023/10/22 10:11:53;;;;;;;2.70;0.68;;;14.50;99.90;;;;;;5036061;28;20065;-61
2023/10/22 10:14:38;;;;;;;2.53;0.70;;;14.60;99.90;;;;;;5018333;28;20102;-61
2023/10/22 10:17:05;;;;;;;3.45;1.00;;;14.80;99.90;;;;;;5022980;28;20041;-61
2023/10/22 10:19:35;;;;;;;4.75;1.13;;;15.00;99.90;;;;;;5038667;28;20138;-64
2023/10/22 10:22:01;;;;;;;3.38;0.77;;;15.10;99.90;;;;;;4998698;28;20108;-59
2023/10/22 10:24:29;;;;;;;2.65;1.02;;;15.10;99.90;;;;;;5002837;28;20030;-58
2023/10/22 10:26:55;;;;;;;3.53;0.82;;;15.00;99.90;;;;;;4983354;28;20095;-56
2023/10/22 10:29:26;;;;;;;6.32;0.90;;;15.10;99.90;;;;;;5000583;28;20495;-56
2023/10/22 10:31:54;;;;;;;2.47;0.63;;;14.90;99.90;;;;;;4995491;28;20563;-56
2023/10/22 10:34:27;;;;;;;4.00;0.88;;;14.70;99.90;;;;;;4996963;28;20046;-55
2023/10/22 10:36:53;;;;;;;2.70;0.77;;;14.60;99.90;;;;;;4996686;28;21387;-55
2023/10/22 10:39:42;;;;;;;2.75;0.93;;;14.40;99.90;;;;;;4998600;28;20564;-56
2023/10/22 10:42:08;;;;;;;3.50;0.80;;;14.30;99.90;;;;;;4996769;28;20056;-56
2023/10/22 10:44:57;;;;;;;2.72;0.80;;;14.20;99.90;;;;;;4996095;28;20061;-55
2023/10/22 10:47:24;;;;;;;2.58;1.02;;;14.10;99.90;;;;;;5015187;28;20053;-56
2023/10/22 10:50:12;;;;;;;3.67;0.80;;;14.00;99.90;;;;;;4983446;28;20140;-56
2023/10/22 10:52:38;;;;;;;2.58;0.57;;;13.90;99.90;;;;;;5006807;28;20050;-56
2023/10/22 10:55:20;;;;;;;1.92;0.82;;;13.90;99.90;;;;;;5000877;28;20096;-55
2023/10/22 10:57:51;;;;;;;1.83;1.00;;;13.90;99.90;;;;;;5007741;28;20050;-56
2023/10/22 11:00:29;;;;;;;2.47;0.90;;;13.90;99.90;;;;;;5004342;28;20042;-55
2023/10/22 11:02:57;;;;;;;2.08;0.52;;;13.90;99.90;;;;;;5000688;28;20046;-55
2023/10/22 11:05:40;;;;;;;5.10;0.70;;;13.90;99.90;;;;;;5004345;28;20049;-55
2023/10/22 11:08:11;;;;;;;2.78;0.70;;;14.00;99.90;;;;;;5005747;28;20049;-55
2023/10/22 11:10:36;;;;;;;3.85;0.70;;;14.10;99.90;;;;;;5003325;28;20038;-56
2023/10/22 11:13:07;;;;;;;2.47;0.80;;;14.30;99.90;;;;;;4999964;28;20065;-54
2023/10/22 11:15:35;;;;;;;1.20;0.52;;;14.60;99.90;;;;;;5004810;28;20095;-56
2023/10/22 11:18:02;;;;;;;2.40;0.55;;;14.90;99.90;;;;;;4998699;28;20063;-55
2023/10/22 11:20:28;;;;;;;2.20;0.50;;;14.90;99.90;;;;;;5001252;28;20053;-55
2023/10/22 11:22:54;;;;;;;1.73;0.50;;;14.80;99.90;;;;;;5003031;28;20515;-56
2023/10/22 11:25:20;;;;;;;2.05;0.40;;;14.70;99.90;;;;;;4996388;28;20084;-54
2023/10/22 11:27:46;;;;;;;4.03;0.77;;;14.70;99.90;;;;;;4998680;28;20042;-55
2023/10/22 11:30:31;;;;;;;1.50;0.50;;;14.70;99.90;;;;;;4994541;28;20516;-55
2023/10/22 11:32:57;;;;;;;0.98;0.60;;;14.60;99.90;;;;;;4994051;28;20046;-56
2023/10/22 11:35:30;;;;;;;3.50;0.50;;;14.50;99.90;;;;;;4998377;28;20112;-55
2023/10/22 11:37:57;;;;;;;1.35;0.60;;;14.70;99.90;;;;;;4998752;28;20061;-54
2023/10/22 11:40:33;;;;;;;1.67;0.60;;;15.00;99.90;;;;;;4996732;28;20060;-56
2023/10/22 11:43:04;;;;;;;1.13;0.68;;;15.00;99.90;;;;;;5002726;28;20038;-56
2023/10/22 11:45:34;;;;;;;1.17;0.50;;;15.10;99.90;;;;;;4998721;28;20120;-56
2023/10/22 11:48:13;;;;;;;0.73;0.40;;;15.10;98.70;;;;;;4982902;28;20676;-55
2023/10/22 11:50:39;;;;;;;1.00;0.43;;;15.30;99.90;;;;;;4993038;28;20037;-56
2023/10/22 11:53:05;;;;;;;1.98;0.50;;;15.30;99.90;;;;;;4998242;28;20292;-56
2023/10/22 11:55:30;;;;;;;4.00;0.85;;;15.40;99.80;;;;;;4997665;28;20042;-55
2023/10/22 11:57:56;;;;;;;1.30;0.65;;;15.50;99.90;;;;;;4986060;28;20069;-55
2023/10/22 12:00:22;;;;;;;1.23;0.50;;;15.70;99.90;;;;;;4999885;28;20037;-55
2023/10/22 12:02:48;;;;;;;2.53;0.90;;;15.50;99.80;;;;;;4998877;28;20046;-55
2023/10/22 12:05:14;;;;;;;3.42;0.65;;;15.50;99.90;;;;;;4996922;28;20046;-56
2023/10/22 12:07:40;;;;;;;4.72;0.50;;;15.70;99.90;;;;;;4998114;28;22338;-55
2023/10/22 12:10:06;;;;;;;0.77;0.40;;;15.80;99.90;;;;;;5011232;28;20045;-53
2023/10/22 12:12:33;;;;;;;2.05;0.65;;;15.70;99.90;;;;;;5000190;28;20046;-55
2023/10/22 12:14:59;;;;;;;2.28;0.60;;;15.70;99.90;;;;;;4984691;28;20042;-54
2023/10/22 12:17:25;;;;;;;3.55;0.75;;;15.60;99.90;;;;;;4999328;28;20038;-55
2023/10/22 12:19:51;;;;;;;1.67;0.40;;;15.60;99.90;;;;;;5003228;28;20042;-55
2023/10/22 12:22:17;;;;;;;2.15;0.55;;;15.70;99.90;;;;;;5001132;28;20064;-55
2023/10/22 12:24:43;;;;;;;3.53;0.68;;;15.70;99.90;;;;;;5015589;28;20076;-56
2023/10/22 12:27:08;;;;;;;2.08;0.75;;;15.60;99.90;;;;;;5002601;28;20088;-55
2023/10/22 12:29:34;;;;;;;1.33;0.70;;;15.60;99.90;;;;;;5004721;28;20045;-53
2023/10/22 12:32:00;;;;;;;3.78;0.73;;;15.50;99.90;;;;;;5002938;28;20184;-54
2023/10/22 12:34:27;;;;;;;2.17;0.90;;;15.30;99.90;;;;;;4983987;28;20042;-55
2023/10/22 12:36:53;;;;;;;2.35;0.55;;;15.20;99.90;;;;;;5003481;28;20080;-55
2023/10/22 12:39:21;;;;;;;2.92;0.68;;;15.10;99.90;;;;;;5018997;28;20069;-56
2023/10/22 12:41:46;;;;;;;5.07;0.93;;;15.00;99.90;;;;;;5000911;28;20045;-56
2023/10/22 12:44:12;;;;;;;4.05;0.80;;;15.00;99.90;;;;;;4987846;28;20091;-55
2023/10/22 12:46:38;;;;;;;2.53;0.88;;;15.00;99.90;;;;;;5020303;28;20081;-55